sensor_id;sensor_type;location;lat;lon;timestamp;pressure;altitude;pressure_sealevel;temperature;humidity
15263;BME280;7733;51.554;13.590;2023-01-29T21:45:29;100844.19;;;0.95;90.66
15263;BME280;7733;51.554;13.590;2023-01-29T21:47:55;100825.59;;;0.79;90.47
15263;BME280;7733;51.554;13.590;2023-01-29T22:01:27;100794.44;;;0.73;89.85
15263;BME280;7733;51.554;13.590;2023-01-29T22:17:50;100772.88;;;0.71;89.92
15263;BME280;7733;51.554;13.590;2023-01-29T22:24:06;100757.72;;;0.82;89.74
15263;BME280;7733;51.554;13.590;2023-01-29T22:26:33;100756.47;;;0.69;90.32
15263;BME280;7733;51.554;13.590;2023-01-29T22:28:58;100753.84;;;0.96;89.67
15263;BME280;7733;51.554;13.590;2023-01-29T22:31:24;100751.47;;;0.75;90.38
15263;BME280;7733;51.554;13.590;2023-01-29T22:33:50;100748.84;;;0.74;89.96
15263;BME280;7733;51.554;13.590;2023-01-29T22:36:17;100737.75;;;0.76;89.38
15263;BME280;7733;51.554;13.590;2023-01-29T22:38:44;100735.75;;;0.96;89.46
15263;BME280;7733;51.554;13.590;2023-01-29T22:41:11;100731.03;;;0.81;89.52
15263;BME280;7733;51.554;13.590;2023-01-29T22:43:38;100711.34;;;0.58;90.32
15263;BME280;7733;51.554;13.590;2023-01-29T22:46:09;100713.50;;;0.71;89.88
15263;BME280;7733;51.554;13.590;2023-01-29T22:48:35;100710.47;;;0.84;90.16
15263;BME280;7733;51.554;13.590;2023-01-29T22:51:01;100702.25;;;0.98;89.78
15263;BME280;7733;51.554;13.590;2023-01-29T22:53:42;100694.06;;;0.82;89.56
15263;BME280;7733;51.554;13.590;2023-01-29T22:56:10;100689.91;;;0.87;89.08
15263;BME280;7733;51.554;13.590;2023-01-29T22:58:36;100693.16;;;0.80;89.51
15263;BME280;7733;51.554;13.590;2023-01-29T23:01:03;100689.88;;;0.86;89.62
15263;BME280;7733;51.554;13.590;2023-01-29T23:03:29;100689.00;;;0.85;88.81
15263;BME280;7733;51.554;13.590;2023-01-29T23:05:55;100695.66;;;0.79;89.11
15263;BME280;7733;51.554;13.590;2023-01-29T23:08:21;100688.69;;;0.76;89.23
15263;BME280;7733;51.554;13.590;2023-01-29T23:10:46;100688.66;;;0.75;89.42
15263;BME280;7733;51.554;13.590;2023-01-29T23:13:12;100684.03;;;0.93;88.45
15263;BME280;7733;51.554;13.590;2023-01-29T23:15:38;100673.13;;;0.73;89.82
15263;BME280;7733;51.554;13.590;2023-01-29T23:18:04;100658.63;;;0.78;89.54
15263;BME280;7733;51.554;13.590;2023-01-29T23:20:30;100661.09;;;1.02;89.15
15263;BME280;7733;51.554;13.590;2023-01-29T23:22:56;100653.34;;;0.74;90.18
15263;BME280;7733;51.554;13.590;2023-01-29T23:25:22;100638.84;;;0.79;89.93
15263;BME280;7733;51.554;13.590;2023-01-29T23:28:07;100642.06;;;0.70;89.75
15263;BME280;7733;51.554;13.590;2023-01-29T23:30:33;100635.66;;;0.86;89.60
15263;BME280;7733;51.554;13.590;2023-01-29T23:32:59;100634.72;;;0.84;90.14
15263;BME280;7733;51.554;13.590;2023-01-29T23:35:24;100631.72;;;0.70;90.37
15263;BME280;7733;51.554;13.590;2023-01-29T23:37:50;100623.91;;;0.67;90.78
15263;BME280;7733;51.554;13.590;2023-01-29T23:40:16;100616.66;;;0.84;90.79
15263;BME280;7733;51.554;13.590;2023-01-29T23:42:42;100603.81;;;0.87;90.96
15263;BME280;7733;51.554;13.590;2023-01-29T23:45:08;100606.66;;;0.66;90.91
15263;BME280;7733;51.554;13.590;2023-01-29T23:47:34;100588.63;;;0.98;90.48
15263;BME280;7733;51.554;13.590;2023-01-29T23:49:59;100591.56;;;0.80;90.82
15263;BME280;7733;51.554;13.590;2023-01-29T23:52:25;100586.09;;;0.69;91.06
15263;BME280;7733;51.554;13.590;2023-01-29T23:54:51;100584.97;;;0.89;90.85
15263;BME280;7733;51.554;13.590;2023-01-29T23:57:16;100577.78;;;0.79;91.07
15263;BME280;7733;51.554;13.590;2023-01-29T23:59:42;100569.38;;;0.86;91.18
